Time;durP1;ratioP1;P1;durP2;ratioP2;P2;SDS_P1;SDS_P2;PMS_P1;PMS_P2;Temp;Humidity;BMP_temperature;BMP_pressure;BME280_temperature;BME280_humidity;BME280_pressure;Samples;Min_cycle;Max_cycle;Signal;HPM_P1;HPM_P2
2021/06/20 00:00:33;;;;;;;11.05;7.68;;;23.40;61.90;;;23.43;45.48;94687.53;4888637;28;20301;-81
2021/06/20 00:03:01;;;;;;;8.27;7.50;;;23.40;62.10;;;23.39;45.41;94689.13;4714600;30;20313;-81
2021/06/20 00:07:44;;;;;;;8.35;7.10;;;23.40;62.10;;;23.28;45.09;94685.75;5135087;27;20563;-81
2021/06/20 00:10:18;;;;;;;7.38;6.68;;;23.30;61.90;;;23.25;45.72;94689.75;5047501;28;20251;-81
2021/06/20 00:12:45;;;;;;;8.65;7.85;;;23.20;62.20;;;23.22;45.92;94697.53;5064039;28;20203;-81
2021/06/20 00:15:16;;;;;;;9.25;8.35;;;23.20;62.20;;;23.18;46.65;94691.97;5034730;28;20228;-81
2021/06/20 00:17:44;;;;;;;8.48;7.57;;;23.20;62.70;;;23.15;46.00;94689.81;5026508;28;20678;-81
2021/06/20 00:20:14;;;;;;;8.38;7.57;;;23.10;62.50;;;23.10;46.16;94687.16;4940991;28;20235;-80
2021/06/20 00:22:41;;;;;;;8.50;7.60;;;23.00;62.50;;;23.07;45.72;94687.69;4869698;29;20211;-81
2021/06/20 00:25:08;;;;;;;7.95;7.25;;;23.00;62.50;;;23.02;45.94;94700.03;4711529;29;20312;-81
2021/06/20 00:27:46;;;;;;;8.10;7.30;;;23.00;62.70;;;23.01;46.13;94694.97;5150577;27;20377;-81
2021/06/20 00:30:17;;;;;;;8.05;7.03;;;22.90;62.70;;;23.00;46.05;94696.03;5110542;28;20231;-82
2021/06/20 00:32:48;;;;;;;8.63;7.55;;;22.90;63.00;;;22.97;46.20;94694.72;5051790;28;20212;-80
2021/06/20 00:35:17;;;;;;;8.07;7.38;;;22.90;63.00;;;22.92;46.28;94680.56;4997337;28;20263;-80
2021/06/20 00:37:45;;;;;;;7.63;6.95;;;22.90;63.00;;;22.90;46.38;94691.56;4934429;29;20211;-81
2021/06/20 00:40:13;;;;;;;7.45;6.82;;;22.80;62.80;;;22.89;46.38;94689.13;4877023;29;20387;-81
2021/06/20 00:42:40;;;;;;;8.18;7.38;;;22.80;63.00;;;22.85;46.17;94680.84;4794165;29;20209;-81
2021/06/20 00:45:10;;;;;;;8.70;7.90;;;22.80;63.10;;;22.82;46.15;94676.88;4694491;30;20240;-81
2021/06/20 00:49:42;;;;;;;8.63;6.65;;;22.70;63.20;;;22.74;46.15;94664.09;5116419;27;20580;-81
2021/06/20 00:52:09;;;;;;;8.55;7.03;;;22.70;63.00;;;22.71;46.53;94670.75;5091192;28;20218;-81
2021/06/20 00:54:37;;;;;;;10.68;7.70;;;22.70;63.10;;;22.71;46.93;94662.75;5067545;28;20246;-81
2021/06/20 00:57:04;;;;;;;8.65;7.78;;;22.60;63.20;;;22.68;47.13;94657.94;5049462;28;20629;-80
2021/06/20 00:59:31;;;;;;;8.35;7.55;;;22.60;63.40;;;22.67;47.07;94656.34;5028846;28;20268;-81
2021/06/20 01:01:58;;;;;;;8.23;7.43;;;22.60;63.40;;;22.63;47.12;94647.28;4952027;28;20206;-80
2021/06/20 01:04:24;;;;;;;8.02;7.32;;;22.60;63.50;;;22.61;46.80;94645.97;4947184;28;20669;-81
2021/06/20 01:06:51;;;;;;;8.50;7.68;;;22.50;63.60;;;22.57;46.84;94643.03;4871482;29;20226;-81
2021/06/20 01:11:54;;;;;;;9.00;8.18;;;22.50;63.50;;;22.54;47.73;94647.06;5149877;27;21135;-81
2021/06/20 01:14:21;;;;;;;8.57;7.78;;;22.40;63.90;;;22.51;47.93;94639.59;5097200;28;20213;-81
2021/06/20 01:16:52;;;;;;;7.57;6.88;;;22.40;64.00;;;22.49;47.37;94638.25;5089001;28;20205;-83
2021/06/20 01:19:19;;;;;;;7.93;7.22;;;22.40;64.10;;;22.45;47.56;94637.19;5091089;28;20225;-81
2021/06/20 01:21:47;;;;;;;8.20;7.40;;;22.40;64.00;;;22.43;48.44;94647.38;5061798;28;20202;-80
2021/06/20 01:24:14;;;;;;;8.23;7.40;;;22.30;64.10;;;22.39;47.37;94637.22;4911488;28;20227;-80
2021/06/20 01:26:41;;;;;;;8.38;7.57;;;22.30;64.00;;;22.34;48.17;94639.09;4696106;29;20221;-81
2021/06/20 01:29:09;;;;;;;8.02;7.07;;;22.30;64.20;;;22.27;48.12;94639.38;4345698;31;20261;-80
2021/06/20 01:33:49;;;;;;;10.43;7.85;;;22.30;64.20;;;22.12;47.76;94634.88;5142618;27;20656;-81
2021/06/20 01:36:16;;;;;;;10.27;7.53;;;22.20;64.10;;;22.05;48.05;94637.81;5083751;28;20655;-81
2021/06/20 01:38:42;;;;;;;9.25;7.55;;;22.10;64.00;;;22.00;47.94;94634.38;5067348;28;20235;-81
2021/06/20 01:41:09;;;;;;;8.70;7.63;;;22.10;64.20;;;21.94;48.38;94630.13;5063474;28;20218;-80
2021/06/20 01:43:37;;;;;;;8.25;7.45;;;22.00;64.30;;;21.87;48.46;94628.53;4996952;28;20253;-80
2021/06/20 01:46:04;;;;;;;8.63;7.80;;;21.90;64.50;;;21.84;48.74;94630.94;4895444;29;20281;-81
2021/06/20 01:48:31;;;;;;;9.00;8.10;;;21.90;64.80;;;21.77;48.61;94625.88;4898312;29;20257;-80
2021/06/20 01:50:57;;;;;;;8.82;8.07;;;21.80;64.90;;;21.74;49.07;94627.22;4801672;29;20226;-81
2021/06/20 01:55:32;;;;;;;9.35;8.10;;;21.70;64.80;;;21.65;48.38;94618.13;5149744;27;20630;-80
2021/06/20 01:57:59;;;;;;;8.27;7.57;;;21.80;64.90;;;21.64;48.68;94621.91;5111756;27;20199;-81
2021/06/20 02:00:26;;;;;;;8.55;7.70;;;21.70;64.80;;;21.62;48.73;94616.03;5109798;28;20247;-80
2021/06/20 02:02:53;;;;;;;9.02;8.13;;;21.70;64.80;;;21.62;48.99;94618.69;5083079;28;20217;-81
2021/06/20 02:05:25;;;;;;;9.13;8.02;;;21.60;64.70;;;21.58;49.32;94618.44;5049166;28;20254;-80
2021/06/20 02:07:52;;;;;;;9.32;8.40;;;21.60;65.50;;;21.56;49.06;94619.75;4981345;28;20210;-81
2021/06/20 02:10:18;;;;;;;8.77;7.55;;;21.50;64.60;;;21.55;49.55;94620.81;4917976;29;20808;-80
2021/06/20 02:12:46;;;;;;;8.77;7.97;;;21.50;64.70;;;21.52;49.33;94621.31;4699176;30;20224;-80
2021/06/20 02:16:27;;;;;;;8.18;7.45;;;21.50;65.20;;;21.47;49.41;94624.00;5139829;27;20566;-81
2021/06/20 02:18:55;;;;;;;8.45;7.60;;;21.50;65.00;;;21.47;49.49;94627.50;5106081;28;20214;-81
2021/06/20 02:21:21;;;;;;;8.48;7.65;;;21.40;66.10;;;21.46;49.78;94615.22;5086628;28;20218;-81
2021/06/20 02:23:48;;;;;;;8.30;7.60;;;21.40;65.20;;;21.46;49.56;94604.53;5024799;28;20231;-80
2021/06/20 02:26:14;;;;;;;8.25;7.47;;;21.40;65.30;;;21.44;49.58;94601.31;5057740;28;20296;-80
2021/06/20 02:28:41;;;;;;;9.02;8.13;;;21.40;65.40;;;21.41;49.28;94600.00;5037999;28;20247;-81
2021/06/20 02:31:07;;;;;;;8.73;7.82;;;21.40;65.40;;;21.43;49.28;94605.06;4965176;28;20220;-79
2021/06/20 02:33:34;;;;;;;8.95;8.10;;;21.40;65.50;;;21.41;49.81;94599.19;4834555;28;20340;-80
2021/06/20 02:38:09;;;;;;;9.25;8.15;;;21.40;65.60;;;21.37;49.38;94595.47;5131427;27;20563;-80
2021/06/20 02:40:37;;;;;;;8.30;7.60;;;21.30;65.40;;;21.36;49.65;94593.84;5107899;28;20674;-80
2021/06/20 02:43:04;;;;;;;8.38;7.32;;;21.30;65.60;;;21.36;49.66;94591.19;5109717;28;20721;-82
2021/06/20 02:45:31;;;;;;;8.65;7.85;;;21.30;65.70;;;21.34;49.93;94596.81;5088391;28;20229;-80
2021/06/20 02:47:57;;;;;;;8.85;8.05;;;21.30;65.80;;;21.34;49.86;94593.34;5035988;28;20201;-80
2021/06/20 02:50:24;;;;;;;8.68;7.88;;;21.20;65.80;;;21.32;50.26;94596.25;4930008;28;20238;-81
2021/06/20 02:52:50;;;;;;;8.85;7.78;;;21.30;66.00;;;21.31;49.80;94599.19;4923392;28;20213;-81
2021/06/20 02:55:17;;;;;;;8.77;7.93;;;21.20;65.90;;;21.31;49.79;94591.97;4774196;29;20233;-81
2021/06/20 02:59:56;;;;;;;9.40;8.25;;;21.30;66.10;;;21.25;49.90;94593.06;5134570;27;20652;-80
2021/06/20 03:02:24;;;;;;;10.30;8.38;;;21.20;65.90;;;21.26;50.33;94592.81;5082657;28;20729;-81
2021/06/20 03:04:53;;;;;;;9.02;8.10;;;21.20;66.10;;;21.25;50.12;94590.38;5077922;28;20287;-81
2021/06/20 03:07:20;;;;;;;8.70;7.90;;;21.20;66.20;;;21.24;50.40;94586.94;5037441;28;20672;-80
2021/06/20 03:09:49;;;;;;;9.57;8.68;;;21.10;66.10;;;21.23;50.74;94579.22;4933882;28;20238;-81
2021/06/20 03:12:17;;;;;;;12.10;7.60;;;21.20;66.30;;;21.24;50.80;94575.47;4962230;28;20608;-81
2021/06/20 03:14:46;;;;;;;7.97;7.28;;;21.20;66.40;;;21.25;50.51;94577.06;4862795;29;20243;-82
2021/06/20 03:17:14;;;;;;;8.35;7.30;;;21.10;66.40;;;21.22;50.20;94577.59;4692575;29;20211;-81
2021/06/20 03:19:52;;;;;;;9.95;8.07;;;21.10;66.30;;;21.28;50.80;94577.31;5120256;27;20804;-79
2021/06/20 03:22:19;;;;;;;8.73;7.85;;;21.10;66.40;;;21.32;50.06;94571.47;5068693;28;20205;-80
2021/06/20 03:24:50;;;;;;;9.60;8.60;;;21.20;66.50;;;21.33;51.06;94575.72;5106059;27;20229;-80
2021/06/20 03:27:19;;;;;;;9.05;8.15;;;21.10;66.90;;;21.36;50.61;94578.66;5090261;28;20217;-80
2021/06/20 03:29:47;;;;;;;11.13;8.27;;;21.10;66.80;;;21.39;50.47;94585.34;5076579;28;20222;-81
2021/06/20 03:32:17;;;;;;;10.25;8.00;;;21.20;66.70;;;21.37;50.43;94580.28;5036327;28;20205;-80
2021/06/20 03:34:44;;;;;;;9.55;8.60;;;21.20;66.80;;;21.40;51.05;94582.38;4983981;28;20644;-81
2021/06/20 03:37:11;;;;;;;9.00;8.07;;;21.20;66.70;;;21.42;50.71;94588.25;4789563;28;20843;-80
2021/06/20 03:39:49;;;;;;;8.52;7.40;;;21.20;66.90;;;21.45;51.01;94592.25;5135036;27;20319;-80
2021/06/20 03:42:17;;;;;;;9.15;7.90;;;21.20;66.90;;;21.51;50.71;94593.06;5083825;28;20198;-80
2021/06/20 03:44:43;;;;;;;8.90;7.50;;;21.30;67.00;;;21.54;50.64;94600.53;5038352;28;20234;-81
2021/06/20 03:47:10;;;;;;;8.85;8.05;;;21.30;67.10;;;21.57;51.15;94605.38;5041805;28;20208;-80
2021/06/20 03:49:37;;;;;;;8.07;7.32;;;21.30;67.10;;;21.62;50.97;94610.69;5016099;28;20349;-80
2021/06/20 03:52:04;;;;;;;8.35;7.60;;;21.40;67.00;;;21.68;51.05;94606.94;4940543;28;22016;-81
2021/06/20 03:54:31;;;;;;;9.27;8.38;;;21.40;67.20;;;21.74;51.11;94613.88;4869575;29;20233;-81
2021/06/20 03:56:58;;;;;;;8.95;8.02;;;21.50;67.30;;;21.81;51.04;94616.25;4740308;29;20230;-81
2021/06/20 04:01:31;;;;;;;8.73;7.85;;;21.50;67.30;;;21.90;51.23;94619.19;5149732;27;20552;-82
2021/06/20 04:03:58;;;;;;;8.75;8.05;;;21.60;67.40;;;22.00;50.81;94619.16;5090735;28;20267;-81
2021/06/20 04:06:24;;;;;;;8.35;7.65;;;21.60;67.40;;;22.09;51.12;94613.25;5056692;28;20422;-81
2021/06/20 04:08:51;;;;;;;8.85;8.05;;;21.70;67.50;;;22.16;50.82;94595.06;5066058;28;20233;-80
2021/06/20 04:11:17;;;;;;;9.85;7.47;;;21.80;67.70;;;22.20;51.21;94590.78;5009315;28;20299;-81
2021/06/20 04:13:44;;;;;;;8.65;7.85;;;21.90;67.80;;;22.32;51.18;94601.16;4995019;28;20293;-81
2021/06/20 04:16:10;;;;;;;9.27;8.48;;;21.90;67.70;;;22.41;50.84;94590.72;4865486;29;20268;-81
2021/06/20 04:18:37;;;;;;;8.90;8.00;;;21.90;67.70;;;22.51;51.43;94606.72;4755692;29;20238;-81
2021/06/20 04:23:27;;;;;;;9.13;8.18;;;22.10;67.80;;;22.69;51.08;94606.09;5147017;27;20675;-82
2021/06/20 04:25:53;;;;;;;8.70;7.95;;;22.20;67.90;;;22.80;50.92;94608.69;5070533;28;20211;-82
2021/06/20 04:28:21;;;;;;;8.63;7.82;;;22.30;67.90;;;22.90;50.79;94608.66;5086447;28;20757;-82
2021/06/20 04:30:53;;;;;;;9.65;8.75;;;22.40;67.90;;;23.01;51.33;94615.53;5038090;28;20779;-82
2021/06/20 04:33:21;;;;;;;9.00;8.20;;;22.50;68.20;;;23.13;51.05;94612.50;5017144;28;20201;-81
2021/06/20 04:35:48;;;;;;;9.75;8.85;;;22.60;68.00;;;23.24;50.81;94617.78;5040877;28;20213;-82
2021/06/20 04:38:15;;;;;;;10.88;8.65;;;22.60;68.00;;;23.33;50.82;94624.94;4962458;28;20217;-82
2021/06/20 04:40:42;;;;;;;9.65;8.50;;;22.70;68.00;;;23.41;50.61;94628.09;4763311;29;20221;-82
2021/06/20 04:45:10;;;;;;;8.77;7.97;;;22.80;68.00;;;23.51;50.89;94617.34;5112536;27;21169;-82
2021/06/20 04:47:39;;;;;;;8.93;8.10;;;23.00;68.00;;;23.60;51.12;94614.84;5079626;28;20215;-82
2021/06/20 04:50:06;;;;;;;8.50;7.80;;;23.10;67.90;;;23.65;50.53;94614.78;5085582;28;20225;-82
2021/06/20 04:52:33;;;;;;;8.75;7.95;;;23.10;67.80;;;23.76;50.52;94615.50;5063128;28;20223;-82
2021/06/20 04:54:59;;;;;;;9.40;8.50;;;23.20;67.70;;;23.81;50.57;94615.44;5023093;28;20283;-81
2021/06/20 04:57:29;;;;;;;8.45;7.55;;;23.30;67.60;;;23.87;50.36;94610.84;4982539;28;20286;-82
2021/06/20 05:00:00;;;;;;;8.82;7.78;;;23.30;67.70;;;23.92;50.60;94606.25;4892047;29;20314;-82
2021/06/20 05:02:28;;;;;;;7.65;7.00;;;23.40;67.70;;;24.00;50.56;94607.53;4693518;30;20217;-83
2021/06/20 05:06:49;;;;;;;8.45;7.57;;;23.40;67.60;;;24.03;50.28;94601.56;5148846;27;20568;-81
2021/06/20 05:09:17;;;;;;;9.45;7.78;;;23.60;67.50;;;24.10;50.35;94607.41;5094437;27;20268;-82
2021/06/20 05:11:43;;;;;;;9.82;7.82;;;23.60;67.30;;;24.17;50.12;94603.56;5070454;28;20568;-81
2021/06/20 05:14:10;;;;;;;8.43;7.63;;;23.70;67.30;;;24.19;50.32;94602.19;5073942;28;20217;-82
2021/06/20 05:16:36;;;;;;;8.93;8.05;;;23.70;67.00;;;24.19;49.95;94601.41;5029471;28;20200;-82
2021/06/20 05:19:03;;;;;;;9.25;8.35;;;23.70;66.80;;;24.20;50.02;94603.81;4956235;28;20575;-81
2021/06/20 05:21:33;;;;;;;8.90;8.10;;;23.80;66.90;;;24.23;49.84;94603.25;4886335;29;20233;-81
2021/06/20 05:24:02;;;;;;;9.00;8.20;;;23.80;66.80;;;24.28;50.20;94600.50;4752402;29;20569;-81
2021/06/20 05:28:31;;;;;;;9.35;8.45;;;23.80;67.00;;;24.36;50.18;94599.06;5146416;27;20549;-81
2021/06/20 05:30:58;;;;;;;8.40;7.70;;;23.90;66.90;;;24.45;50.28;94605.38;5107563;27;20215;-82
2021/06/20 05:33:25;;;;;;;8.85;7.97;;;23.90;66.80;;;24.53;49.91;94597.78;5075955;28;20232;-81
2021/06/20 05:35:52;;;;;;;9.75;7.90;;;24.00;66.70;;;24.58;49.72;94597.72;5052286;28;20275;-82
2021/06/20 05:38:19;;;;;;;8.60;7.70;;;24.00;66.70;;;24.67;49.80;94590.66;4999857;28;20205;-80
2021/06/20 05:40:46;;;;;;;7.95;7.22;;;24.10;66.70;;;24.76;50.18;94593.50;4904582;29;20554;-79
2021/06/20 05:43:13;;;;;;;8.73;7.88;;;24.20;66.80;;;24.82;49.52;94592.34;4852968;29;20213;-80
2021/06/20 05:45:40;;;;;;;8.48;7.75;;;24.20;66.80;;;24.88;49.50;94593.06;4737944;29;20226;-79
2021/06/20 05:49:58;;;;;;;8.70;7.93;;;24.30;66.80;;;24.91;49.39;94595.16;5132703;27;20643;-80
2021/06/20 05:52:24;;;;;;;8.48;7.68;;;24.40;66.90;;;24.93;49.57;94601.03;5083269;28;20290;-79
2021/06/20 05:54:51;;;;;;;8.73;7.93;;;24.50;67.10;;;24.97;49.77;94598.56;5083936;28;20502;-79
2021/06/20 05:57:20;;;;;;;9.05;8.15;;;24.50;67.10;;;24.98;49.90;94602.84;5036987;28;20202;-80
2021/06/20 05:59:48;;;;;;;12.88;8.43;;;24.50;67.00;;;24.98;49.42;94608.22;5057331;28;20230;-79
2021/06/20 06:02:20;;;;;;;9.07;7.95;;;24.50;67.10;;;24.96;49.64;94605.03;4989974;28;20202;-80
2021/06/20 06:04:46;;;;;;;9.55;8.50;;;24.50;67.10;;;24.92;49.42;94605.59;4829292;29;20324;-79
2021/06/20 06:07:25;;;;;;;9.55;8.65;;;24.50;67.10;;;24.90;49.86;94606.97;5141984;27;20568;-79
2021/06/20 06:09:51;;;;;;;9.43;8.55;;;24.50;67.00;;;24.89;49.94;94594.63;5097010;28;20687;-80
2021/06/20 06:12:21;;;;;;;10.75;8.20;;;24.50;67.00;;;24.91;49.85;94593.28;5055732;28;20211;-80
2021/06/20 06:14:48;;;;;;;8.95;7.85;;;24.50;67.00;;;24.91;49.60;94595.16;5031215;28;20707;-79
2021/06/20 06:17:14;;;;;;;10.25;8.23;;;24.50;67.00;;;24.94;49.66;94591.91;5010196;28;20784;-79
2021/06/20 06:19:41;;;;;;;9.60;8.70;;;24.60;67.10;;;24.97;49.82;94595.88;5022237;28;20235;-80
2021/06/20 06:22:08;;;;;;;8.88;7.97;;;24.50;67.10;;;24.99;49.63;94597.19;4950549;28;20223;-79
2021/06/20 06:24:35;;;;;;;9.30;8.40;;;24.60;67.10;;;25.03;49.73;94600.09;4834972;29;20251;-79
2021/06/20 06:29:09;;;;;;;8.07;7.28;;;24.60;67.10;;;25.15;50.02;94610.38;5141020;27;20687;-80
2021/06/20 06:31:41;;;;;;;7.97;7.35;;;24.70;67.20;;;25.18;49.80;94605.22;5086926;28;20204;-80
2021/06/20 06:34:09;;;;;;;9.23;7.95;;;24.70;67.20;;;25.30;49.75;94618.19;5079825;28;20704;-80
2021/06/20 06:36:37;;;;;;;8.45;7.75;;;24.80;67.20;;;25.41;49.56;94619.66;5015637;28;20217;-80
2021/06/20 06:39:04;;;;;;;9.25;8.30;;;24.80;67.30;;;25.53;49.73;94615.72;4974961;28;20223;-80
2021/06/20 06:41:32;;;;;;;8.90;7.60;;;24.90;67.30;;;25.65;49.55;94607.19;4946895;28;20217;-81
2021/06/20 06:43:59;;;;;;;9.55;8.65;;;25.00;68.30;;;25.79;49.56;94604.53;4872227;28;20247;-81
2021/06/20 06:46:26;;;;;;;8.75;7.95;;;25.00;67.80;;;25.92;49.30;94603.75;4717166;30;20219;-84
2021/06/20 06:51:18;;;;;;;9.02;7.97;;;25.20;67.50;;;26.16;49.23;94619.72;5150088;27;20404;-79
2021/06/20 06:53:44;;;;;;;8.07;7.38;;;25.40;67.30;;;26.27;48.99;94614.16;5111311;27;20585;-79
2021/06/20 06:56:11;;;;;;;8.27;7.57;;;25.50;67.10;;;26.39;48.70;94608.28;5097536;28;20238;-81
2021/06/20 06:58:38;;;;;;;8.43;7.72;;;25.60;67.10;;;26.49;49.00;94608.09;5076406;28;20688;-80
2021/06/20 07:01:05;;;;;;;8.57;7.80;;;25.70;67.10;;;26.62;48.80;94607.28;5099681;28;20592;-80
2021/06/20 07:03:32;;;;;;;8.38;7.68;;;25.80;67.00;;;26.74;48.69;94614.81;5023195;28;20228;-80
2021/06/20 07:05:58;;;;;;;8.93;8.15;;;25.90;67.00;;;26.86;48.67;94617.00;4897978;28;20234;-80
2021/06/20 07:08:25;;;;;;;9.35;8.45;;;26.00;66.90;;;26.97;48.26;94617.59;4810490;29;20241;-79
2021/06/20 07:12:45;;;;;;;8.43;7.68;;;26.10;66.70;;;27.17;48.08;94624.38;5150373;27;20957;-80
2021/06/20 07:15:12;;;;;;;9.32;8.45;;;26.40;66.60;;;27.30;48.20;94636.22;5106050;28;20336;-81
2021/06/20 07:17:39;;;;;;;9.00;8.10;;;26.40;66.20;;;27.42;47.93;94633.81;5068032;28;20219;-81
2021/06/20 07:20:11;;;;;;;8.68;7.97;;;26.60;66.00;;;27.52;47.55;94629.28;5033392;28;20767;-81
2021/06/20 07:22:39;;;;;;;9.48;8.15;;;26.60;65.80;;;27.61;47.71;94628.25;5047973;28;20278;-81
2021/06/20 07:25:07;;;;;;;8.65;7.95;;;26.70;65.90;;;27.74;47.54;94626.56;5044731;28;20222;-81
2021/06/20 07:27:37;;;;;;;9.63;8.80;;;26.90;65.90;;;27.82;47.58;94619.66;4996423;28;20211;-80
2021/06/20 07:30:14;;;;;;;9.20;8.30;;;27.00;65.90;;;27.99;47.62;94628.91;4826855;29;20240;-79
2021/06/20 07:32:54;;;;;;;8.77;7.97;;;27.10;65.50;;;28.10;47.17;94631.06;5149299;27;20299;-79
2021/06/20 07:35:20;;;;;;;9.48;8.57;;;27.20;65.40;;;28.19;47.15;94625.69;5094577;28;20248;-79
2021/06/20 07:37:47;;;;;;;9.43;8.52;;;27.30;65.50;;;28.31;46.71;94629.69;5088846;28;20301;-81
2021/06/20 07:40:15;;;;;;;8.80;8.05;;;27.40;65.50;;;28.43;47.13;94625.31;5088302;28;20633;-80
2021/06/20 07:42:44;;;;;;;9.77;8.77;;;27.50;65.30;;;28.54;47.06;94633.09;5036749;28;20732;-80
2021/06/20 07:45:14;;;;;;;10.05;9.15;;;27.60;65.10;;;28.64;46.81;94635.53;4976604;28;20250;-81
2021/06/20 07:47:43;;;;;;;10.43;9.43;;;27.70;65.10;;;28.75;46.75;94636.06;4968220;28;20240;-81
2021/06/20 07:50:13;;;;;;;9.65;8.82;;;27.80;64.80;;;28.87;46.30;94643.56;4828697;29;20299;-81
2021/06/20 07:54:50;;;;;;;9.52;8.73;;;28.00;65.00;;;29.10;46.37;94638.81;5135298;27;21169;-80
2021/06/20 07:57:20;;;;;;;9.30;8.50;;;28.20;64.80;;;29.21;45.75;94640.09;5081415;28;20241;-81
2021/06/20 07:59:51;;;;;;;9.80;8.80;;;28.30;64.70;;;29.35;46.30;94652.66;5032315;28;20259;-80
2021/06/20 08:02:18;;;;;;;10.48;9.27;;;28.40;64.80;;;29.48;46.11;94637.38;5015881;28;20218;-79
2021/06/20 08:04:45;;;;;;;10.15;9.15;;;28.50;64.60;;;29.64;45.70;94643.13;5029825;28;20290;-80
2021/06/20 08:07:13;;;;;;;10.48;9.32;;;28.60;64.30;;;29.78;45.32;94632.13;5010040;28;20696;-80
2021/06/20 08:09:39;;;;;;;9.98;9.07;;;28.80;64.40;;;29.90;45.59;94629.56;4978797;28;20258;-81
2021/06/20 08:12:08;;;;;;;10.23;9.23;;;28.90;64.20;;;30.01;45.20;94609.16;4762314;29;20259;-80
2021/06/20 08:16:43;;;;;;;9.90;9.10;;;29.00;63.80;;;30.22;44.98;94581.41;5133596;27;20641;-80
2021/06/20 08:19:10;;;;;;;10.18;9.18;;;29.20;63.80;;;30.32;44.30;94562.09;5091154;28;20314;-80
2021/06/20 08:21:37;;;;;;;11.10;10.07;;;29.30;63.40;;;30.33;44.43;94550.16;5108432;28;20201;-81
2021/06/20 08:24:04;;;;;;;10.52;9.55;;;29.40;62.90;;;30.42;44.50;94560.13;5083098;28;20246;-81
2021/06/20 08:26:30;;;;;;;10.70;9.30;;;29.50;63.00;;;30.44;44.59;94566.03;5036295;28;20217;-81
2021/06/20 08:28:57;;;;;;;10.88;9.77;;;29.60;63.00;;;30.54;44.32;94575.69;4948369;28;20236;-80
2021/06/20 08:31:23;;;;;;;11.02;9.93;;;29.60;62.70;;;30.57;43.81;94583.19;4854477;29;20320;-80
2021/06/20 08:33:51;;;;;;;10.65;9.73;;;29.70;62.70;;;30.63;44.39;94598.88;4831001;29;20248;-80
2021/06/20 08:38:10;;;;;;;10.13;8.88;;;29.70;62.80;;;30.72;44.25;94598.81;5135976;27;20569;-81
2021/06/20 08:40:39;;;;;;;9.85;9.05;;;29.80;62.70;;;30.79;43.99;94598.31;5112253;28;20206;-80
2021/06/20 08:43:05;;;;;;;10.48;9.48;;;29.90;62.40;;;30.87;44.16;94602.06;5082016;28;20242;-81
2021/06/20 08:45:32;;;;;;;10.10;9.30;;;29.90;62.50;;;30.95;43.46;94601.22;5122518;27;20198;-81
2021/06/20 08:48:01;;;;;;;9.90;8.98;;;30.10;63.30;;;31.04;43.65;94607.38;5147277;27;20196;-81
2021/06/20 08:50:28;;;;;;;9.88;9.00;;;30.10;62.10;;;31.12;43.39;94603.03;5034340;28;20720;-80
2021/06/20 08:52:56;;;;;;;9.77;8.88;;;30.20;62.30;;;31.21;43.08;94602.97;4841109;29;20239;-81
2021/06/20 08:55:23;;;;;;;10.32;9.45;;;30.30;62.10;;;31.29;43.01;94607.53;4718597;29;20254;-80
2021/06/20 08:59:52;;;;;;;9.73;8.88;;;30.30;61.90;;;31.43;43.24;94608.06;5133378;27;20591;-81
2021/06/20 09:02:24;;;;;;;9.43;8.60;;;30.50;62.10;;;31.52;43.23;94602.53;5069161;28;20203;-82
2021/06/20 09:04:59;;;;;;;9.88;9.02;;;30.50;61.80;;;31.59;42.92;94601.97;5073059;28;20695;-81
2021/06/20 09:07:34;;;;;;;11.02;9.70;;;30.70;61.60;;;31.68;43.25;94613.56;5054112;28;20204;-82
2021/06/20 09:10:25;;;;;;;10.27;9.27;;;30.70;61.40;;;31.73;42.82;94612.56;5007033;28;20344;-80
2021/06/20 09:12:52;;;;;;;10.45;9.43;;;30.80;61.60;;;31.82;42.90;94609.78;4900941;28;20625;-81
2021/06/20 09:15:26;;;;;;;9.73;8.93;;;30.90;61.30;;;31.89;42.17;94604.59;4793139;29;20621;-81
2021/06/20 09:20:49;;;;;;;9.60;8.82;;;31.00;61.10;;;32.01;42.21;94599.19;5150302;27;20639;-82
2021/06/20 09:23:18;;;;;;;10.65;9.75;;;31.10;61.50;;;32.10;42.48;94599.06;5115112;27;20641;-80
2021/06/20 09:25:54;;;;;;;10.15;9.25;;;31.10;61.20;;;32.20;41.91;94595.97;5069282;28;20656;-81
2021/06/20 09:28:21;;;;;;;10.30;9.15;;;31.20;60.60;;;32.30;41.29;94583.06;5032732;28;20682;-81
2021/06/20 09:30:52;;;;;;;10.13;9.20;;;31.30;60.80;;;32.43;41.86;94592.00;4962510;28;20256;-81
2021/06/20 09:33:20;;;;;;;9.80;9.00;;;31.40;60.60;;;32.51;41.28;94591.88;4918744;29;20218;-81
2021/06/20 09:35:55;;;;;;;9.70;8.80;;;31.50;60.50;;;32.60;41.14;94589.03;4874165;29;20255;-82
2021/06/20 09:41:37;;;;;;;9.50;8.60;;;31.70;60.60;;;32.73;40.76;94578.97;5140087;27;20988;-81
2021/06/20 09:44:04;;;;;;;9.30;8.43;;;31.80;60.00;;;32.79;40.41;94584.97;5091220;28;20226;-81
2021/06/20 09:46:31;;;;;;;9.48;8.68;;;31.80;60.00;;;32.87;41.09;94576.72;5099368;28;20214;-81
2021/06/20 09:48:59;;;;;;;9.48;8.68;;;31.90;60.00;;;32.97;40.79;94569.19;5056590;28;20223;-82
2021/06/20 09:51:26;;;;;;;9.07;8.27;;;31.90;59.80;;;33.04;40.84;94572.13;5057845;28;20213;-80
2021/06/20 09:53:54;;;;;;;9.15;8.35;;;32.00;59.90;;;33.12;40.74;94563.03;4933275;28;20261;-81
2021/06/20 09:56:30;;;;;;;10.82;9.00;;;32.10;60.00;;;33.24;40.71;94564.13;4891887;29;20250;-83
2021/06/20 09:59:04;;;;;;;10.10;9.10;;;32.20;59.90;;;33.34;40.07;94569.13;4718175;29;20246;-81
2021/06/20 10:03:33;;;;;;;10.05;9.15;;;32.30;59.50;;;33.46;40.14;94563.63;5145847;27;20570;-80
2021/06/20 10:06:02;;;;;;;9.05;8.30;;;32.50;58.80;;;33.49;39.69;94565.63;5077963;28;20201;-80
2021/06/20 10:08:30;;;;;;;9.13;8.13;;;32.50;59.00;;;33.56;40.13;94570.47;5043174;28;20836;-80
2021/06/20 10:10:57;;;;;;;9.35;8.45;;;32.50;58.70;;;33.64;39.80;94569.53;5012398;28;20260;-80
2021/06/20 10:13:23;;;;;;;8.77;8.07;;;32.60;58.30;;;33.72;39.24;94570.50;4988193;28;20324;-80
2021/06/20 10:15:50;;;;;;;8.50;7.70;;;32.70;58.10;;;33.78;39.23;94566.38;4936718;28;20685;-80
2021/06/20 10:18:18;;;;;;;8.73;7.93;;;32.80;58.00;;;33.89;38.96;94574.84;4867498;29;20647;-80
2021/06/20 10:20:45;;;;;;;8.43;7.65;;;32.80;57.10;;;33.94;38.61;94560.97;4667264;29;20222;-81
2021/06/20 10:23:24;;;;;;;8.55;7.85;;;32.90;57.10;;;34.04;38.95;94561.59;5138945;27;20564;-81
2021/06/20 10:25:52;;;;;;;8.95;8.05;;;33.00;57.40;;;34.14;38.25;94558.34;5094458;27;20224;-81
2021/06/20 10:28:30;;;;;;;8.80;7.95;;;33.10;56.80;;;34.25;38.06;94572.22;5103125;28;20214;-81
2021/06/20 10:31:09;;;;;;;9.13;8.35;;;33.20;56.60;;;34.36;37.79;94567.81;5019053;28;20256;-81
2021/06/20 10:33:37;;;;;;;8.90;7.97;;;33.30;56.50;;;34.45;37.49;94564.94;5027574;28;20221;-81
2021/06/20 10:36:09;;;;;;;8.52;7.85;;;33.30;56.10;;;34.54;37.35;94562.03;4977799;28;20216;-81
2021/06/20 10:38:43;;;;;;;8.63;7.93;;;33.40;55.80;;;34.61;37.22;94560.25;4839089;29;20243;-80
2021/06/20 10:41:34;;;;;;;9.25;8.35;;;33.50;55.60;;;34.70;37.35;94565.47;5149302;27;20633;-81
2021/06/20 10:44:02;;;;;;;8.85;8.15;;;33.60;55.80;;;34.77;37.19;94552.03;5100001;28;20277;-81
2021/06/20 10:46:30;;;;;;;8.95;8.15;;;33.70;55.50;;;34.86;36.55;94557.25;5052410;28;20209;-82
2021/06/20 10:48:57;;;;;;;11.57;7.93;;;33.70;54.60;;;34.97;36.88;94564.91;5025800;28;20232;-81
2021/06/20 10:51:26;;;;;;;8.23;7.53;;;33.80;54.90;;;35.05;36.38;94566.66;4978450;28;20232;-81
2021/06/20 10:53:52;;;;;;;8.32;7.63;;;33.90;54.50;;;35.17;36.23;94558.31;4927907;29;20303;-81
2021/06/20 10:56:40;;;;;;;8.35;7.65;;;34.00;54.10;;;35.27;35.59;94560.47;4810050;29;20585;-81
2021/06/20 10:59:23;;;;;;;7.47;6.88;;;34.10;53.50;;;35.37;35.46;94564.53;5139564;27;21154;-81
2021/06/20 11:01:50;;;;;;;7.88;7.25;;;34.20;53.80;;;35.46;35.30;94560.84;5084251;28;20201;-82
2021/06/20 11:04:17;;;;;;;8.70;8.00;;;34.30;53.30;;;35.51;35.54;94558.63;5064273;28;20253;-82
2021/06/20 11:06:57;;;;;;;7.43;6.82;;;34.40;53.10;;;35.57;35.64;94540.81;5069628;28;20246;-81
2021/06/20 11:09:36;;;;;;;8.15;7.35;;;34.50;53.70;;;35.66;34.88;94546.03;5018706;28;20592;-82
2021/06/20 11:12:14;;;;;;;7.97;7.18;;;34.60;52.80;;;35.71;34.87;94532.06;4879256;29;20216;-82
2021/06/20 11:14:45;;;;;;;7.97;7.28;;;34.70;52.30;;;35.83;34.62;94530.34;4794557;29;20251;-82